Time;durP1;ratioP1;P1;durP2;ratioP2;P2;SDS_P1;SDS_P2;PMS_P1;PMS_P2;Temp;Humidity;BMP_temperature;BMP_pressure;BME280_temperature;BME280_humidity;BME280_pressure;Samples;Min_cycle;Max_cycle;Signal;HPM_P1;HPM_P2
2022/04/25 00:01:45;;;;;;;1.00;0.55;;;9.40;64.60;;;;;;5096439;28;20070;-73
2022/04/25 00:04:11;;;;;;;1.40;0.73;;;9.40;64.70;;;;;;5096248;28;20049;-73
2022/04/25 00:06:36;;;;;;;0.70;0.50;;;9.40;64.70;;;;;;5096046;28;20046;-73
2022/04/25 00:09:02;;;;;;;0.98;0.55;;;9.50;64.90;;;;;;5114695;28;20126;-73
2022/04/25 00:11:28;;;;;;;0.57;0.57;;;9.30;64.90;;;;;;5096058;28;20035;-73
2022/04/25 00:13:54;;;;;;;0.65;0.50;;;9.20;64.90;;;;;;5095369;28;20398;-73
2022/04/25 00:16:19;;;;;;;0.60;0.55;;;9.20;65.00;;;;;;5114598;28;20123;-73
2022/04/25 00:18:47;;;;;;;0.77;0.45;;;9.20;65.10;;;;;;5114430;28;20043;-74
2022/04/25 00:21:13;;;;;;;0.50;0.50;;;9.20;65.30;;;;;;5114671;28;20038;-73
2022/04/25 00:23:38;;;;;;;0.90;0.60;;;9.20;65.40;;;;;;5114462;28;20405;-72
2022/04/25 00:26:04;;;;;;;0.80;0.40;;;9.10;65.50;;;;;;5114006;28;20044;-73
2022/04/25 00:28:30;;;;;;;1.02;0.70;;;9.10;65.60;;;;;;5114184;28;20714;-74
2022/04/25 00:30:55;;;;;;;0.88;0.75;;;9.00;65.60;;;;;;5114044;28;20040;-73
2022/04/25 00:33:21;;;;;;;0.68;0.65;;;9.00;65.80;;;;;;5095938;28;20039;-73
2022/04/25 00:35:47;;;;;;;0.50;0.50;;;9.00;65.80;;;;;;5113372;28;20039;-73
2022/04/25 00:38:13;;;;;;;0.93;0.68;;;8.90;65.90;;;;;;5114240;28;20046;-73
2022/04/25 00:40:40;;;;;;;0.98;0.50;;;8.90;66.00;;;;;;5096099;28;20096;-73
2022/04/25 00:43:06;;;;;;;2.25;0.73;;;8.90;66.70;;;;;;5114320;28;20404;-73
2022/04/25 00:45:33;;;;;;;0.73;0.60;;;8.80;66.10;;;;;;5114196;28;20047;-73
2022/04/25 00:47:59;;;;;;;0.73;0.65;;;8.80;66.20;;;;;;5096475;28;20104;-73
2022/04/25 00:50:25;;;;;;;0.55;0.50;;;8.80;66.30;;;;;;5114660;28;20096;-73
2022/04/25 00:52:51;;;;;;;0.95;0.65;;;8.80;66.20;;;;;;5114330;28;20032;-72
2022/04/25 00:55:17;;;;;;;1.08;0.70;;;8.80;66.30;;;;;;5078797;28;20046;-73
2022/04/25 00:57:44;;;;;;;1.00;0.52;;;8.80;66.30;;;;;;5095700;28;20040;-73
2022/04/25 01:00:12;;;;;;;0.85;0.50;;;8.80;66.30;;;;;;5114273;28;20043;-73
2022/04/25 01:02:38;;;;;;;0.75;0.60;;;8.80;66.30;;;;;;5095629;28;20565;-73
2022/04/25 01:05:05;;;;;;;0.50;0.50;;;8.80;66.40;;;;;;5113574;28;20051;-73
2022/04/25 01:07:33;;;;;;;0.80;0.60;;;8.80;66.40;;;;;;5077493;28;20044;-73
2022/04/25 01:10:00;;;;;;;1.75;0.80;;;8.80;66.40;;;;;;5113475;28;20067;-74
2022/04/25 01:12:27;;;;;;;1.17;0.77;;;8.80;66.50;;;;;;5113358;28;20067;-73
2022/04/25 01:14:59;;;;;;;0.95;0.60;;;8.80;66.60;;;;;;5095144;28;20055;-74
2022/04/25 01:17:25;;;;;;;;;;;8.80;66.70;;;;;;5093449;28;20044;-74
2022/04/25 01:19:51;;;;;;;1.50;0.70;;;8.80;66.60;;;;;;5113814;28;19955;-73
2022/04/25 01:22:19;;;;;;;0.73;0.60;;;8.80;66.50;;;;;;5113405;28;20048;-73
2022/04/25 01:27:26;;;;;;;1.08;0.80;;;8.70;66.70;;;;;;5113233;28;20489;-73
2022/04/25 01:29:54;;;;;;;0.60;0.50;;;8.70;66.80;;;;;;5113247;28;20043;-73
2022/04/25 01:32:22;;;;;;;0.60;0.43;;;8.70;67.00;;;;;;5113139;28;20088;-73
2022/04/25 01:34:48;;;;;;;1.10;0.75;;;8.60;67.10;;;;;;5113153;28;20050;-72
2022/04/25 01:37:15;;;;;;;1.08;0.70;;;8.60;67.20;;;;;;5113762;28;20396;-72
2022/04/25 01:39:47;;;;;;;0.68;0.65;;;8.60;67.30;;;;;;5112977;28;20043;-73
2022/04/25 01:42:14;;;;;;;1.67;0.50;;;8.50;67.30;;;;;;5113162;28;20043;-73
2022/04/25 01:44:40;;;;;;;0.93;0.65;;;8.50;67.40;;;;;;5113070;28;20048;-73
2022/04/25 01:47:06;;;;;;;1.30;0.80;;;8.50;67.50;;;;;;5113111;28;20481;-73
2022/04/25 01:49:33;;;;;;;0.77;0.68;;;8.50;67.60;;;;;;5093893;28;20092;-73
2022/04/25 01:52:10;;;;;;;0.93;0.63;;;8.40;67.60;;;;;;5094551;28;20389;-74
2022/04/25 01:54:36;;;;;;;0.47;0.47;;;8.50;67.80;;;;;;5112987;28;20044;-73
2022/04/25 01:57:02;;;;;;;1.13;0.63;;;8.50;67.80;;;;;;5093465;28;20039;-73
2022/04/25 01:59:30;;;;;;;0.85;0.55;;;8.50;67.80;;;;;;5113105;28;20046;-73
2022/04/25 02:01:56;;;;;;;1.05;0.60;;;8.50;67.90;;;;;;5112714;28;20126;-73
2022/04/25 02:04:22;;;;;;;0.90;0.77;;;8.50;67.90;;;;;;5094407;28;20088;-73
2022/04/25 02:06:49;;;;;;;1.40;0.80;;;8.50;68.00;;;;;;5113063;28;20040;-73
2022/04/25 02:09:14;;;;;;;1.10;0.70;;;8.40;68.00;;;;;;5112954;28;20035;-74
2022/04/25 02:11:40;;;;;;;0.95;0.60;;;8.40;68.00;;;;;;5112857;28;20050;-73
2022/04/25 02:14:06;;;;;;;1.15;0.75;;;8.40;68.10;;;;;;5112563;28;20122;-73
2022/04/25 02:16:32;;;;;;;1.08;0.85;;;8.40;68.80;;;;;;5094620;28;20031;-73
2022/04/25 02:18:57;;;;;;;1.15;0.70;;;8.50;68.30;;;;;;5113014;28;20035;-73
2022/04/25 02:21:24;;;;;;;0.52;0.50;;;8.40;68.20;;;;;;5112427;28;20587;-74
2022/04/25 02:23:49;;;;;;;2.65;1.10;;;8.30;68.20;;;;;;5092713;28;20451;-73
2022/04/25 02:26:15;;;;;;;0.88;0.68;;;8.30;68.40;;;;;;5112971;28;20043;-74
2022/04/25 02:28:41;;;;;;;0.70;0.50;;;8.30;68.50;;;;;;5076891;28;20452;-73
2022/04/25 02:31:07;;;;;;;0.85;0.60;;;8.30;68.60;;;;;;5113100;28;20036;-73
2022/04/25 02:33:34;;;;;;;2.03;1.02;;;8.20;68.60;;;;;;5112913;28;20055;-73
2022/04/25 02:36:04;;;;;;;1.25;0.77;;;8.20;68.70;;;;;;5112381;28;20122;-73
2022/04/25 02:38:33;;;;;;;1.30;0.80;;;8.10;68.80;;;;;;5094813;28;20039;-73
2022/04/25 02:41:06;;;;;;;1.50;1.00;;;8.10;69.00;;;;;;5112327;28;20083;-73
2022/04/25 02:43:35;;;;;;;1.05;0.80;;;8.10;69.00;;;;;;5112314;28;20047;-73
2022/04/25 02:46:03;;;;;;;1.75;0.70;;;8.10;69.00;;;;;;5112617;28;20044;-73
2022/04/25 02:48:30;;;;;;;0.50;0.50;;;8.00;69.70;;;;;;5112299;28;20036;-73
2022/04/25 02:50:56;;;;;;;0.45;0.45;;;8.00;69.20;;;;;;5112616;28;20039;-73
2022/04/25 02:53:24;;;;;;;1.35;0.70;;;8.00;69.30;;;;;;5112221;28;20043;-74
2022/04/25 02:55:51;;;;;;;0.85;0.70;;;8.00;69.40;;;;;;5092244;28;20051;-74
2022/04/25 02:58:17;;;;;;;0.65;0.50;;;7.90;69.40;;;;;;5112108;28;20391;-73
2022/04/25 03:00:45;;;;;;;0.47;0.40;;;7.90;69.50;;;;;;5114860;28;20040;-73
2022/04/25 03:03:12;;;;;;;0.77;0.60;;;7.90;69.50;;;;;;5116107;28;20036;-74
2022/04/25 03:05:39;;;;;;;0.60;0.47;;;7.90;69.60;;;;;;5116132;28;20484;-73
2022/04/25 03:08:05;;;;;;;0.80;0.63;;;7.80;69.60;;;;;;5097524;28;20036;-73
2022/04/25 03:10:31;;;;;;;1.02;0.60;;;7.80;69.70;;;;;;5116147;28;20482;-74
2022/04/25 03:12:57;;;;;;;0.60;0.57;;;7.90;69.80;;;;;;5115198;28;20401;-74
2022/04/25 03:15:22;;;;;;;0.47;0.45;;;7.80;69.80;;;;;;5095348;28;20040;-73
2022/04/25 03:17:48;;;;;;;0.63;0.60;;;7.80;70.00;;;;;;5115530;28;20039;-73
2022/04/25 03:20:14;;;;;;;0.70;0.68;;;7.80;70.00;;;;;;5097183;28;20039;-73
2022/04/25 03:22:39;;;;;;;1.20;0.82;;;7.80;70.10;;;;;;5097066;28;20035;-73
2022/04/25 03:25:06;;;;;;;0.80;0.57;;;7.80;70.10;;;;;;5115220;28;20051;-73
2022/04/25 03:27:32;;;;;;;0.95;0.70;;;7.70;70.20;;;;;;5095850;28;20036;-73
2022/04/25 03:29:57;;;;;;;0.95;0.65;;;7.70;70.20;;;;;;5115346;28;20036;-73
2022/04/25 03:32:23;;;;;;;0.90;0.70;;;7.70;70.30;;;;;;5096908;28;20481;-73
2022/04/25 03:34:49;;;;;;;1.40;0.70;;;7.70;70.30;;;;;;5115052;28;20038;-74
2022/04/25 03:37:14;;;;;;;0.98;0.70;;;7.70;70.40;;;;;;5096739;28;20467;-73
2022/04/25 03:39:40;;;;;;;0.88;0.63;;;7.70;70.40;;;;;;5115071;28;20130;-73
2022/04/25 03:42:06;;;;;;;0.70;0.55;;;7.80;70.40;;;;;;5095993;28;20043;-73
2022/04/25 03:44:31;;;;;;;1.27;0.70;;;7.60;70.30;;;;;;5114802;28;20039;-73
2022/04/25 03:46:57;;;;;;;1.50;0.80;;;7.70;70.40;;;;;;5114846;28;20039;-74
2022/04/25 03:49:22;;;;;;;1.30;0.90;;;7.80;70.40;;;;;;5114939;28;20031;-73
2022/04/25 03:51:48;;;;;;;1.10;0.82;;;7.80;70.40;;;;;;5114594;28;20039;-73
2022/04/25 03:57:09;;;;;;;1.35;0.80;;;7.80;70.40;;;;;;5094863;28;20063;-74
2022/04/25 03:59:36;;;;;;;0.85;0.80;;;7.80;70.40;;;;;;5114604;28;20047;-74
2022/04/25 04:02:04;;;;;;;1.63;0.73;;;7.80;70.30;;;;;;5096618;28;20040;-74
2022/04/25 04:04:30;;;;;;;1.23;0.80;;;7.80;70.30;;;;;;5097783;28;20473;-73
2022/04/25 04:06:55;;;;;;;1.13;0.70;;;7.90;70.30;;;;;;5096615;28;20050;-73
2022/04/25 04:12:07;;;;;;;1.30;0.88;;;7.90;70.30;;;;;;5113582;28;20044;-73
2022/04/25 04:14:32;;;;;;;1.13;0.80;;;8.00;70.30;;;;;;5096500;28;20047;-73
2022/04/25 04:16:58;;;;;;;1.02;0.77;;;8.00;70.30;;;;;;5077805;28;20051;-73
2022/04/25 04:19:24;;;;;;;1.20;0.80;;;8.00;70.30;;;;;;5115149;28;20897;-73
2022/04/25 04:21:50;;;;;;;1.60;1.05;;;8.10;70.30;;;;;;5096317;28;20047;-73
2022/04/25 04:24:15;;;;;;;1.00;0.90;;;8.10;70.40;;;;;;5115041;28;20054;-75
2022/04/25 04:26:42;;;;;;;1.35;0.98;;;8.10;70.40;;;;;;5096358;28;20032;-73
2022/04/25 04:29:08;;;;;;;1.88;1.13;;;8.10;70.30;;;;;;5114511;28;20047;-74
2022/04/25 04:31:34;;;;;;;2.65;1.20;;;8.10;70.30;;;;;;5094915;28;20486;-74
2022/04/25 04:34:00;;;;;;;2.08;1.27;;;8.20;70.40;;;;;;5096304;28;20039;-73
2022/04/25 04:36:26;;;;;;;1.95;1.13;;;8.20;70.30;;;;;;5096073;28;20039;-74
2022/04/25 04:38:52;;;;;;;1.58;1.13;;;8.30;70.40;;;;;;5114292;28;20047;-75
2022/04/25 04:41:18;;;;;;;1.52;1.05;;;8.30;70.40;;;;;;5114531;28;20497;-74
2022/04/25 04:43:44;;;;;;;1.08;0.98;;;8.30;70.40;;;;;;5114853;28;20074;-75
2022/04/25 04:46:10;;;;;;;1.52;1.10;;;8.40;70.50;;;;;;5095059;28;20086;-75
2022/04/25 04:48:35;;;;;;;1.55;0.98;;;8.40;70.50;;;;;;5114561;28;20047;-75
2022/04/25 04:51:01;;;;;;;2.00;1.10;;;8.50;70.60;;;;;;5096024;28;20043;-75
2022/04/25 04:53:27;;;;;;;1.55;1.05;;;8.50;70.50;;;;;;5095794;28;20070;-74
2022/04/25 04:55:53;;;;;;;1.48;1.10;;;8.50;70.50;;;;;;5114215;28;20035;-75
2022/04/25 04:58:19;;;;;;;1.20;0.98;;;8.50;70.50;;;;;;5114001;28;20118;-74
2022/04/25 05:00:46;;;;;;;1.08;0.85;;;8.60;70.60;;;;;;5096474;28;20035;-75
2022/04/25 05:03:15;;;;;;;1.20;1.05;;;8.60;70.60;;;;;;5114341;28;20182;-75
2022/04/25 05:05:41;;;;;;;2.15;1.10;;;8.60;70.60;;;;;;5096024;28;20126;-75
2022/04/25 05:08:07;;;;;;;1.38;0.95;;;8.60;70.60;;;;;;5114143;28;20039;-75
2022/04/25 05:10:33;;;;;;;1.30;0.80;;;8.60;70.70;;;;;;5114539;28;20080;-75
2022/04/25 05:12:58;;;;;;;2.10;1.02;;;8.70;70.80;;;;;;5095799;28;20046;-76
2022/04/25 05:15:24;;;;;;;2.03;1.20;;;8.70;70.80;;;;;;5114488;28;20039;-75
2022/04/25 05:17:53;;;;;;;1.38;1.02;;;8.70;70.90;;;;;;5095811;28;20047;-75
2022/04/25 05:20:23;;;;;;;2.13;1.20;;;8.80;70.90;;;;;;5096216;28;20031;-75
2022/04/25 05:22:50;;;;;;;1.90;1.13;;;8.70;70.90;;;;;;5113656;28;20039;-74
2022/04/25 05:25:19;;;;;;;1.50;1.23;;;8.70;70.90;;;;;;5113438;28;21164;-75
2022/04/25 05:27:49;;;;;;;1.33;1.08;;;8.80;71.00;;;;;;5095945;28;20401;-73
2022/04/25 05:30:16;;;;;;;1.75;1.10;;;8.70;70.90;;;;;;5078355;28;20039;-73
2022/04/25 05:32:51;;;;;;;1.23;1.00;;;8.90;71.10;;;;;;5078271;28;20066;-76
2022/04/25 05:35:19;;;;;;;1.83;1.20;;;8.80;71.10;;;;;;5079479;28;20035;-74
2022/04/25 05:37:45;;;;;;;1.77;1.20;;;8.80;71.10;;;;;;5078303;28;20043;-75
2022/04/25 05:40:13;;;;;;;2.30;1.15;;;8.70;71.20;;;;;;5113879;28;20048;-76
2022/04/25 05:42:40;;;;;;;2.13;1.30;;;8.80;71.20;;;;;;5093275;28;20127;-75
2022/04/25 05:45:08;;;;;;;1.88;1.30;;;8.90;71.30;;;;;;5078196;28;20073;-75
2022/04/25 05:47:34;;;;;;;3.47;1.30;;;8.90;71.40;;;;;;5094528;28;20497;-75
2022/04/25 05:52:40;;;;;;;1.85;1.13;;;8.80;71.40;;;;;;5113126;28;20054;-75
2022/04/25 05:55:07;;;;;;;2.17;1.17;;;8.80;71.40;;;;;;5094841;28;20043;-75
2022/04/25 05:57:32;;;;;;;3.80;1.15;;;8.90;71.50;;;;;;5112988;28;20491;-74
2022/04/25 05:59:58;;;;;;;2.55;1.45;;;9.00;71.60;;;;;;5094992;28;20056;-75
2022/04/25 06:02:23;;;;;;;3.15;1.30;;;8.80;71.60;;;;;;5112898;28;20044;-75
2022/04/25 06:04:49;;;;;;;2.45;1.50;;;9.00;71.70;;;;;;5112993;28;20565;-74
2022/04/25 06:07:16;;;;;;;2.95;1.60;;;8.90;71.70;;;;;;5094786;28;20134;-74
2022/04/25 06:09:42;;;;;;;2.17;1.27;;;8.90;71.70;;;;;;5094711;28;20036;-74
2022/04/25 06:12:08;;;;;;;2.42;1.50;;;8.90;71.80;;;;;;5113199;28;20054;-74
2022/04/25 06:14:34;;;;;;;2.53;1.55;;;8.90;71.80;;;;;;5093855;28;20431;-74
2022/04/25 06:17:00;;;;;;;2.90;1.58;;;8.90;72.50;;;;;;5093575;28;20119;-74
2022/04/25 06:19:26;;;;;;;1.90;1.40;;;9.00;71.90;;;;;;5113048;28;20126;-74
2022/04/25 06:21:52;;;;;;;2.47;1.48;;;9.00;71.90;;;;;;5112965;28;20642;-74
2022/04/25 06:24:18;;;;;;;1.83;1.25;;;9.00;71.80;;;;;;5093267;28;20512;-75
2022/04/25 06:26:49;;;;;;;2.00;1.40;;;9.00;71.90;;;;;;5113057;28;20039;-74
2022/04/25 06:29:15;;;;;;;2.40;1.42;;;9.10;71.90;;;;;;5113210;28;20470;-74
2022/04/25 06:31:42;;;;;;;2.00;1.30;;;9.10;71.90;;;;;;5094385;28;20028;-74
2022/04/25 06:34:08;;;;;;;2.80;1.65;;;9.10;71.80;;;;;;5094936;28;20086;-74
2022/04/25 06:36:36;;;;;;;2.33;1.20;;;9.10;71.80;;;;;;5116269;28;20473;-74
2022/04/25 06:39:02;;;;;;;2.70;1.42;;;9.20;72.00;;;;;;5116225;28;20039;-74
2022/04/25 06:41:28;;;;;;;1.52;1.10;;;9.10;71.90;;;;;;5116121;28;20485;-74
2022/04/25 06:43:54;;;;;;;1.67;1.20;;;9.10;71.90;;;;;;5116450;28;20119;-74
2022/04/25 06:46:20;;;;;;;2.58;1.60;;;9.20;72.00;;;;;;5097790;28;20572;-74
2022/04/25 06:49:19;;;;;;;2.28;1.35;;;9.20;72.00;;;;;;5116104;28;20035;-74
2022/04/25 06:51:31;;;;;;;2.25;1.40;;;9.30;72.00;;;;;;5098531;28;20047;-74
2022/04/25 06:53:58;;;;;;;2.47;1.40;;;9.30;72.10;;;;;;5116199;28;20370;-74
2022/04/25 06:56:24;;;;;;;2.40;1.50;;;9.20;72.00;;;;;;5115974;28;20048;-74
2022/04/25 06:58:50;;;;;;;2.47;1.30;;;9.30;72.10;;;;;;5115923;28;20051;-74
2022/04/25 07:01:15;;;;;;;2.60;1.48;;;9.30;72.10;;;;;;5098333;28;20115;-75
2022/04/25 07:03:41;;;;;;;2.78;1.48;;;9.30;72.20;;;;;;5097594;28;20043;-74
2022/04/25 07:06:07;;;;;;;3.65;1.52;;;9.30;72.30;;;;;;5097369;28;20071;-74
2022/04/25 07:08:36;;;;;;;1.63;1.08;;;9.40;72.30;;;;;;5080524;28;20502;-75
2022/04/25 07:11:01;;;;;;;2.35;1.27;;;9.30;72.40;;;;;;5116095;28;20042;-75
2022/04/25 07:13:27;;;;;;;1.55;1.15;;;9.30;72.40;;;;;;5115670;28;20035;-73
2022/04/25 07:15:55;;;;;;;1.85;1.17;;;9.40;72.50;;;;;;5115967;28;20036;-75
2022/04/25 07:18:21;;;;;;;1.95;1.30;;;9.30;72.70;;;;;;5095865;28;20040;-77
2022/04/25 07:20:56;;;;;;;2.50;1.55;;;9.30;72.70;;;;;;5097236;28;20070;-77
2022/04/25 07:29:25;;;;;;;2.35;1.30;;;9.10;73.00;;;;;;5052216;28;20475;-78
2022/04/25 07:31:51;;;;;;;2.33;1.50;;;9.10;73.20;;;;;;4976556;28;20034;-76
2022/04/25 07:34:19;;;;;;;2.38;1.40;;;9.10;73.30;;;;;;4960876;28;20102;-75
2022/04/25 07:36:51;;;;;;;2.35;1.40;;;9.00;73.40;;;;;;4960874;28;20069;-74
2022/04/25 07:39:18;;;;;;;2.85;1.50;;;9.00;73.50;;;;;;4993345;28;20043;-75
2022/04/25 07:41:44;;;;;;;2.38;1.50;;;9.00;73.70;;;;;;4992946;28;20039;-75
2022/04/25 07:44:10;;;;;;;2.70;1.48;;;9.00;73.70;;;;;;4976710;28;20350;-75
2022/04/25 07:46:37;;;;;;;2.35;1.63;;;8.90;73.80;;;;;;4976718;28;20054;-74
2022/04/25 07:49:03;;;;;;;3.22;1.58;;;8.90;74.00;;;;;;4993235;28;20039;-75
2022/04/25 07:51:28;;;;;;;2.75;1.70;;;8.80;74.10;;;;;;4960582;28;20125;-76
2022/04/25 07:53:54;;;;;;;1.45;1.10;;;8.80;74.30;;;;;;4977713;28;20144;-77
2022/04/25 07:56:55;;;;;;;2.90;1.40;;;8.80;74.40;;;;;;4974511;28;20207;-75
2022/04/25 08:03:08;;;;;;;2.30;1.27;;;8.70;74.50;;;;;;5017086;28;20164;-77
2022/04/25 08:05:40;;;;;;;2.50;1.33;;;8.70;74.40;;;;;;4995714;28;20041;-76
2022/04/25 08:11:34;;;;;;;2.17;1.35;;;8.70;74.50;;;;;;4897378;29;20178;-77
2022/04/25 08:20:08;;;;;;;2.63;1.40;;;8.80;74.60;;;;;;4876149;29;20520;-75
2022/04/25 08:22:34;;;;;;;2.50;1.30;;;8.70;74.40;;;;;;4839914;29;20505;-77
2022/04/25 08:25:58;;;;;;;2.65;1.30;;;8.70;74.50;;;;;;4856423;29;20049;-75
2022/04/25 08:28:26;;;;;;;2.97;1.60;;;8.80;74.70;;;;;;4823900;29;20459;-77
2022/04/25 08:34:09;;;;;;;2.20;1.60;;;8.80;74.60;;;;;;4862587;29;20424;-76
2022/04/25 08:43:44;;;;;;;2.40;1.20;;;9.00;74.50;;;;;;4902377;29;20134;-80
2022/04/25 08:46:37;;;;;;;2.47;1.38;;;9.00;74.50;;;;;;4907541;29;20062;-79
2022/04/25 08:49:09;;;;;;;2.08;1.20;;;8.90;74.50;;;;;;4876703;29;20412;-80
2022/04/25 08:51:58;;;;;;;2.72;1.45;;;8.90;74.60;;;;;;4895346;29;21452;-79
2022/04/25 08:54:30;;;;;;;3.10;1.70;;;9.00;74.60;;;;;;4912162;29;20036;-78
2022/04/25 08:57:07;;;;;;;2.28;1.38;;;8.90;74.60;;;;;;4914713;29;20379;-78
2022/04/25 08:59:33;;;;;;;2.42;1.40;;;9.00;74.80;;;;;;4915591;29;20064;-76
2022/04/25 09:02:19;;;;;;;3.20;1.83;;;9.00;74.70;;;;;;4916632;29;20051;-78
2022/04/25 09:04:46;;;;;;;2.70;1.63;;;8.90;74.70;;;;;;4916934;29;20048;-77
2022/04/25 09:07:12;;;;;;;3.10;1.52;;;8.90;74.70;;;;;;4915917;29;20043;-76
2022/04/25 09:09:40;;;;;;;2.75;1.30;;;9.00;74.80;;;;;;4912992;29;20177;-77
2022/04/25 09:12:09;;;;;;;2.40;1.58;;;9.10;74.80;;;;;;4925507;29;20052;-79
2022/04/25 09:15:08;;;;;;;2.95;1.40;;;9.10;74.80;;;;;;4934330;29;20058;-79
2022/04/25 09:17:42;;;;;;;2.35;1.40;;;9.20;74.80;;;;;;4898494;29;20124;-76
2022/04/25 09:20:20;;;;;;;2.05;1.38;;;9.40;74.70;;;;;;4907326;29;20043;-78
2022/04/25 09:23:39;;;;;;;1.88;1.40;;;9.40;74.60;;;;;;4937199;29;20050;-77
2022/04/25 09:27:12;;;;;;;2.00;1.30;;;9.40;74.60;;;;;;4947574;28;20137;-81
2022/04/25 09:32:43;;;;;;;2.33;1.38;;;9.50;74.40;;;;;;4907611;29;20040;-79
2022/04/25 09:35:28;;;;;;;3.28;1.50;;;9.40;74.20;;;;;;4883414;29;20100;-77
2022/04/25 09:37:54;;;;;;;2.95;1.42;;;9.50;74.30;;;;;;4908800;29;20052;-77
2022/04/25 09:40:57;;;;;;;2.85;1.60;;;9.50;74.30;;;;;;4893285;29;20040;-75
2022/04/25 09:43:55;;;;;;;1.80;1.17;;;9.50;74.50;;;;;;4825155;29;20152;-76
2022/04/25 09:46:21;;;;;;;2.47;1.35;;;9.50;74.60;;;;;;4841904;29;20054;-75
2022/04/25 09:49:40;;;;;;;4.22;1.48;;;9.60;74.50;;;;;;4791449;29;20178;-75
2022/04/25 09:55:15;;;;;;;3.13;1.48;;;9.60;74.50;;;;;;4766416;30;20044;-76
2022/04/25 10:00:38;;;;;;;3.92;1.63;;;9.70;74.50;;;;;;4798509;29;20055;-77
2022/04/25 10:03:05;;;;;;;3.63;1.55;;;9.70;74.50;;;;;;4831191;29;20043;-75
2022/04/25 10:05:42;;;;;;;3.92;1.80;;;9.60;74.60;;;;;;4830178;29;20106;-76
2022/04/25 10:08:10;;;;;;;2.30;1.58;;;9.60;74.70;;;;;;4840094;29;20058;-75
2022/04/25 10:10:44;;;;;;;2.67;1.52;;;9.60;74.60;;;;;;4840645;29;20445;-73
2022/04/25 10:13:10;;;;;;;3.00;1.70;;;9.70;74.60;;;;;;4877200;29;20033;-74
2022/04/25 10:15:38;;;;;;;3.30;1.75;;;9.70;74.60;;;;;;4903379;29;20146;-74
2022/04/25 10:18:05;;;;;;;2.95;1.50;;;9.80;74.60;;;;;;4917674;29;20047;-74
2022/04/25 10:20:34;;;;;;;2.45;1.48;;;9.70;74.50;;;;;;4973508;28;20140;-74
2022/04/25 10:23:02;;;;;;;1.77;1.20;;;9.80;74.50;;;;;;4973667;28;20046;-73
2022/04/25 10:25:27;;;;;;;2.90;1.50;;;9.90;74.70;;;;;;5002149;28;20072;-73
2022/04/25 10:27:54;;;;;;;2.40;1.60;;;10.00;74.60;;;;;;5067380;28;20513;-74
2022/04/25 10:30:20;;;;;;;2.20;1.35;;;10.00;74.40;;;;;;5070084;28;20049;-74
2022/04/25 10:32:46;;;;;;;2.28;1.40;;;10.10;74.40;;;;;;5070100;28;20063;-74
2022/04/25 10:35:15;;;;;;;3.35;1.60;;;10.20;74.40;;;;;;5070574;28;20526;-74
2022/04/25 10:37:43;;;;;;;2.20;1.60;;;10.10;74.30;;;;;;5053282;28;20072;-73
2022/04/25 10:40:13;;;;;;;3.03;1.65;;;10.10;74.20;;;;;;5075372;28;20044;-73
2022/04/25 10:46:03;;;;;;;2.30;1.30;;;10.20;74.40;;;;;;5100093;28;20047;-77
2022/04/25 10:48:49;;;;;;;2.80;1.52;;;10.10;74.40;;;;;;5094000;28;20122;-76
2022/04/25 10:51:16;;;;;;;2.80;1.42;;;10.10;74.40;;;;;;5112395;28;20036;-77
2022/04/25 10:54:03;;;;;;;2.10;1.35;;;10.10;74.40;;;;;;4993118;28;20046;-77
2022/04/25 10:57:19;;;;;;;2.72;1.50;;;10.20;74.60;;;;;;4992838;28;20109;-78
2022/04/25 10:59:51;;;;;;;2.58;1.80;;;10.10;74.50;;;;;;4994218;28;20050;-78
2022/04/25 11:02:26;;;;;;;3.38;1.98;;;10.10;74.60;;;;;;4977512;28;20050;-78
2022/04/25 11:08:25;;;;;;;2.30;1.38;;;10.10;74.60;;;;;;4997772;28;20200;-77
2022/04/25 11:11:05;;;;;;;2.28;1.23;;;10.20;74.40;;;;;;4994541;28;20046;-78
2022/04/25 11:13:35;;;;;;;2.97;1.40;;;10.10;74.40;;;;;;4994442;28;20050;-77
2022/04/25 11:16:23;;;;;;;2.90;1.70;;;10.10;74.30;;;;;;4976851;28;20072;-75
2022/04/25 11:19:24;;;;;;;1.75;1.30;;;10.20;74.30;;;;;;4977807;28;20065;-76
2022/04/25 11:21:55;;;;;;;3.38;1.55;;;10.10;74.30;;;;;;4982530;28;20041;-74
2022/04/25 11:24:39;;;;;;;2.22;1.30;;;10.20;74.30;;;;;;5033817;28;20039;-76
2022/04/25 11:30:19;;;;;;;2.03;1.20;;;10.10;74.20;;;;;;5052364;28;20056;-76
2022/04/25 11:32:46;;;;;;;1.52;1.10;;;10.10;74.20;;;;;;5051909;28;20404;-75
2022/04/25 11:35:13;;;;;;;2.28;1.30;;;10.30;74.20;;;;;;5052902;28;20072;-76
2022/04/25 11:37:39;;;;;;;2.13;1.40;;;10.30;74.10;;;;;;5003474;28;20072;-76
2022/04/25 11:40:07;;;;;;;1.48;0.90;;;10.30;73.90;;;;;;5019390;28;20408;-76
2022/04/25 11:42:34;;;;;;;1.63;1.20;;;10.40;73.90;;;;;;5019199;28;20044;-78
2022/04/25 11:45:04;;;;;;;1.77;1.20;;;10.40;73.70;;;;;;5035847;28;20095;-78
2022/04/25 11:47:31;;;;;;;1.48;1.17;;;10.50;73.60;;;;;;5019775;28;20052;-77
2022/04/25 11:49:59;;;;;;;2.25;1.48;;;10.50;73.50;;;;;;5020123;28;20037;-77
2022/04/25 11:52:27;;;;;;;1.80;1.20;;;10.50;73.50;;;;;;5053114;28;20071;-78
2022/04/25 11:54:54;;;;;;;2.35;1.48;;;10.60;73.50;;;;;;5035896;28;20065;-80
2022/04/25 11:57:20;;;;;;;1.80;1.33;;;10.60;73.60;;;;;;5036109;28;20041;-78
2022/04/25 12:00:09;;;;;;;1.48;1.13;;;10.60;73.60;;;;;;5029076;28;20043;-81
2022/04/25 12:03:24;;;;;;;2.15;1.27;;;10.50;73.60;;;;;;5079078;28;20044;-80
2022/04/25 12:17:04;;;;;;;1.45;1.00;;;10.60;73.70;;;;;;4932773;29;20135;-78
2022/04/25 12:19:30;;;;;;;2.13;1.27;;;10.60;73.50;;;;;;4920902;29;20039;-78
2022/04/25 12:22:01;;;;;;;2.58;1.40;;;10.90;73.50;;;;;;4938455;29;20115;-75
2022/04/25 12:24:26;;;;;;;2.13;1.00;;;10.80;73.40;;;;;;4935085;29;20047;-75
2022/04/25 12:26:52;;;;;;;2.53;1.17;;;10.70;73.30;;;;;;4915257;29;20083;-76
2022/04/25 12:30:06;;;;;;;1.90;1.02;;;10.80;73.30;;;;;;4916421;29;20427;-78
2022/04/25 12:32:32;;;;;;;2.05;1.10;;;10.90;73.30;;;;;;4909024;29;20052;-76
2022/04/25 12:34:58;;;;;;;2.22;1.20;;;11.00;73.10;;;;;;4913504;29;20131;-74
2022/04/25 12:37:24;;;;;;;1.40;1.20;;;11.00;72.90;;;;;;4899066;29;20660;-75
2022/04/25 12:40:05;;;;;;;1.05;0.95;;;11.00;72.80;;;;;;4896685;29;20503;-74
2022/04/25 12:42:54;;;;;;;2.13;1.38;;;11.00;72.90;;;;;;4896546;29;20063;-74
2022/04/25 12:45:20;;;;;;;1.90;1.25;;;11.00;72.90;;;;;;4928201;29;20189;-73
2022/04/25 12:47:54;;;;;;;2.25;1.40;;;10.90;73.00;;;;;;4966132;28;20172;-76
2022/04/25 12:50:39;;;;;;;1.85;1.13;;;10.90;73.20;;;;;;5036389;28;20081;-73
2022/04/25 12:53:06;;;;;;;2.80;1.20;;;10.80;73.30;;;;;;5035121;28;20030;-75
2022/04/25 12:55:48;;;;;;;2.70;1.45;;;10.80;73.40;;;;;;5015854;28;20049;-74
2022/04/25 12:58:14;;;;;;;2.67;1.20;;;10.80;73.50;;;;;;5024293;28;20041;-75
2022/04/25 13:00:42;;;;;;;2.13;1.27;;;10.80;73.50;;;;;;5071223;28;20482;-74
2022/04/25 13:03:09;;;;;;;1.90;1.33;;;10.80;73.40;;;;;;5079456;28;20040;-76
2022/04/25 13:05:35;;;;;;;2.67;1.40;;;10.80;73.40;;;;;;5092409;28;20032;-75
2022/04/25 13:08:01;;;;;;;1.42;0.93;;;10.90;73.50;;;;;;5094039;28;20090;-74
2022/04/25 13:10:26;;;;;;;2.17;1.08;;;10.80;73.50;;;;;;5094030;28;20441;-75
2022/04/25 13:12:55;;;;;;;1.58;1.10;;;10.90;74.10;;;;;;5075236;28;20038;-76
2022/04/25 13:15:23;;;;;;;1.48;1.00;;;10.90;73.40;;;;;;5093211;28;20516;-76
2022/04/25 13:17:51;;;;;;;1.95;1.20;;;11.00;73.40;;;;;;5093352;28;20036;-75
2022/04/25 13:20:20;;;;;;;1.30;1.00;;;10.90;73.40;;;;;;5092377;28;20051;-73
2022/04/25 13:22:47;;;;;;;1.35;1.05;;;10.80;73.40;;;;;;5093476;28;20039;-72
2022/04/25 13:25:15;;;;;;;1.70;1.15;;;10.80;73.50;;;;;;5092001;28;20044;-75
2022/04/25 13:27:41;;;;;;;1.65;1.33;;;10.70;73.60;;;;;;5093641;28;20389;-75
2022/04/25 13:30:12;;;;;;;2.33;1.17;;;10.70;73.70;;;;;;5092882;28;20128;-76
2022/04/25 13:32:38;;;;;;;1.92;1.15;;;10.70;73.70;;;;;;5093421;28;20032;-75
2022/04/25 13:35:08;;;;;;;1.38;1.10;;;10.70;73.70;;;;;;5091889;28;20056;-75
2022/04/25 13:37:34;;;;;;;3.17;1.20;;;10.80;73.80;;;;;;5074703;28;20126;-76
2022/04/25 13:40:21;;;;;;;1.60;1.25;;;10.80;73.70;;;;;;5073895;28;20158;-76
2022/04/25 13:42:48;;;;;;;2.40;1.30;;;10.90;73.70;;;;;;5049920;28;20045;-76
2022/04/25 13:45:14;;;;;;;1.85;1.23;;;10.80;73.40;;;;;;5016345;28;20560;-75
2022/04/25 13:47:42;;;;;;;2.25;1.30;;;10.80;73.40;;;;;;5017681;28;20123;-76
2022/04/25 13:50:18;;;;;;;1.60;1.10;;;10.90;73.40;;;;;;5013307;28;20121;-77
2022/04/25 13:52:44;;;;;;;1.70;1.27;;;10.90;73.40;;;;;;4935737;29;20047;-77
2022/04/25 13:55:33;;;;;;;2.00;1.30;;;10.90;73.50;;;;;;4936525;29;20047;-77
2022/04/25 13:58:11;;;;;;;1.55;1.30;;;10.80;73.60;;;;;;4897691;29;20134;-77
2022/04/25 14:03:34;;;;;;;1.80;1.15;;;10.80;73.50;;;;;;4875155;29;20086;-77
2022/04/25 14:06:08;;;;;;;1.65;1.10;;;11.00;73.50;;;;;;4827864;29;20056;-76
2022/04/25 14:08:39;;;;;;;2.30;1.20;;;10.90;73.40;;;;;;4877547;29;20040;-76
2022/04/25 14:11:08;;;;;;;1.45;1.20;;;10.90;73.40;;;;;;4847639;29;20049;-76
2022/04/25 14:13:34;;;;;;;1.58;1.08;;;10.80;73.20;;;;;;4845322;29;20036;-74
2022/04/25 14:16:49;;;;;;;1.98;1.23;;;11.00;73.10;;;;;;4843458;29;20488;-76
2022/04/25 14:26:26;;;;;;;3.05;1.10;;;11.10;72.80;;;;;;4906400;29;20438;-74
2022/04/25 14:28:53;;;;;;;1.75;1.08;;;11.20;72.70;;;;;;4902800;29;20043;-73
2022/04/25 14:31:25;;;;;;;1.50;1.05;;;11.30;72.80;;;;;;4980529;28;20107;-75